This is the latest recevied weather packets stored in our database for station/object N7BTW-13. If no packets are shown the sender has not sent any weather packets the latest 10 day(s).
| Time | Temp. | Humidity | Pressure | Rain* | Wind** | Luminosity | Snow |
|---|---|---|---|---|---|---|---|
| 1787875805 | 26.11° C | 51% | - | 0 mm | - | - | - |
| 1787875208 | 25.56° C | 54% | - | 0 mm | - | - | - |
| 1787874610 | 25° C | 54% | - | 0 mm | - | - | - |
| 1787874007 | 26.11° C | 51% | - | 0 mm | - | - | - |
| 1787873407 | 27.22° C | 50% | - | 0 mm | - | - | - |
| 1787872810 | 26.11° C | 51% | - | 0 mm | - | - | - |
| 1787872209 | 25° C | 53% | - | 0 mm | - | - | - |
| 1787871607 | 25° C | 53% | - | 0 mm | - | - | - |
| 1787871007 | 25° C | 54% | - | 0 mm | - | - | - |
| 1787870407 | 25° C | 52% | - | 0 mm | - | - | - |
| 1787869810 | 25.56° C | 51% | - | 0 mm | - | - | - |
| 1787869206 | 26.11° C | 51% | - | 0 mm | - | - | - |
| 1787868608 | 27.78° C | 48% | - | 0 mm | - | - | - |
| 1787868011 | 24.44° C | 54% | - | 0 mm | - | - | - |
| 1787867411 | 23.89° C | 55% | - | 0 mm | - | - | - |
| 1787866807 | 24.44° C | 55% | - | 0 mm | - | - | - |
| 1787866212 | 24.44° C | 54% | - | 0 mm | - | - | - |
| 1787865611 | 25° C | 53% | - | 0 mm | - | - | - |
| 1787865006 | 25° C | 53% | - | 0 mm | - | - | - |
| 1787864409 | 24.44° C | 55% | - | 0 mm | - | - | - |
| 1787863808 | 25° C | 52% | - | 0 mm | - | - | - |
| 1787863214 | 25° C | 52% | - | 0 mm | - | - | - |
| 1787862607 | 25.56° C | 52% | - | 0 mm | - | - | - |
| 1787862008 | 25.56° C | 52% | - | 0 mm | - | - | - |
| 1787861409 | 26.11° C | 51% | - | 0 mm | - | - | - |
* Rain latest hour (hover to see other rain measurements)
** Current wind speed in m/s (hover to see current wind gust speed)